Time;durP1;ratioP1;P1;durP2;ratioP2;P2;SDS_P1;SDS_P2;PMS_P1;PMS_P2;Temp;Humidity;BMP_temperature;BMP_pressure;BME280_temperature;BME280_humidity;BME280_pressure;Samples;Min_cycle;Max_cycle;Signal;HPM_P1;HPM_P2
2022/01/30 00:01:52;;;;;;;9.40;5.55;;;11.40;60.10;;;;;;5092516;28;20024;-85
2022/01/30 00:04:18;;;;;;;15.15;7.35;;;11.10;60.90;;;;;;5094211;28;20494;-79
2022/01/30 00:06:44;;;;;;;9.23;5.97;;;10.90;61.60;;;;;;5093805;28;20032;-80
2022/01/30 00:09:17;;;;;;;9.27;5.07;;;10.80;61.80;;;;;;5093389;28;20032;-80
2022/01/30 00:11:47;;;;;;;9.15;5.03;;;10.70;62.20;;;;;;5101138;28;20466;-79
2022/01/30 00:14:16;;;;;;;10.57;5.70;;;10.40;62.40;;;;;;5093840;28;20052;-80
2022/01/30 00:16:41;;;;;;;10.10;5.43;;;10.40;62.70;;;;;;5112168;28;20490;-80
2022/01/30 00:19:23;;;;;;;8.93;5.00;;;10.90;62.20;;;;;;5093408;28;20066;-81
2022/01/30 00:21:59;;;;;;;8.80;5.40;;;10.90;61.70;;;;;;5111596;28;20020;-80
2022/01/30 00:24:41;;;;;;;12.20;5.40;;;11.00;61.30;;;;;;5094044;28;20486;-79
2022/01/30 00:27:11;;;;;;;7.18;4.38;;;10.70;61.00;;;;;;5092782;28;20024;-79
2022/01/30 00:29:37;;;;;;;11.68;5.80;;;10.50;62.30;;;;;;5054607;28;20027;-79
2022/01/30 00:32:03;;;;;;;8.70;5.30;;;10.80;61.60;;;;;;5111780;28;20024;-80
2022/01/30 00:34:29;;;;;;;8.70;5.18;;;11.20;60.10;;;;;;5111024;28;20032;-79
2022/01/30 00:36:54;;;;;;;13.13;6.40;;;10.90;60.90;;;;;;5110896;28;20434;-80
2022/01/30 00:40:46;;;;;;;10.00;5.72;;;10.40;61.10;;;;;;5085164;27;1420440;-89
2022/01/30 00:43:13;;;;;;;10.65;6.28;;;9.90;63.10;;;;;;5094564;28;20132;-86
2022/01/30 00:45:41;;;;;;;11.45;6.93;;;9.80;64.20;;;;;;5096880;28;20459;-79
2022/01/30 00:48:06;;;;;;;9.35;5.55;;;10.10;63.50;;;;;;5092658;28;20475;-81
2022/01/30 00:50:33;;;;;;;15.57;7.80;;;9.60;64.00;;;;;;5092393;28;20028;-86
2022/01/30 00:52:59;;;;;;;11.43;6.07;;;9.70;63.80;;;;;;5074057;28;20027;-85
2022/01/30 00:55:27;;;;;;;13.35;7.70;;;9.80;64.00;;;;;;5074606;28;20028;-88
2022/01/30 00:57:54;;;;;;;10.75;5.90;;;10.40;62.50;;;;;;5097879;28;20371;-81
2022/01/30 01:00:20;;;;;;;11.63;5.75;;;10.90;61.90;;;;;;5111982;28;20390;-80
2022/01/30 01:02:46;;;;;;;9.45;5.72;;;11.40;60.20;;;;;;5077956;28;20021;-80
2022/01/30 01:05:13;;;;;;;11.07;5.88;;;11.00;60.40;;;;;;5074082;28;20029;-88
2022/01/30 01:07:42;;;;;;;8.68;4.65;;;10.30;62.60;;;;;;5094514;28;20062;-83
2022/01/30 01:10:18;;;;;;;13.80;6.50;;;10.60;60.70;;;;;;5094204;28;20031;-81
2022/01/30 01:23:37;;;;;;;8.38;4.22;;;10.50;60.80;;;;;;5091777;28;20021;-88
2022/01/30 01:26:03;;;;;;;9.35;4.80;;;10.80;59.90;;;;;;5075736;28;20024;-89
2022/01/30 01:28:29;;;;;;;7.22;4.60;;;10.40;60.60;;;;;;5091617;28;20039;-89
2022/01/30 01:30:55;;;;;;;8.13;4.53;;;10.50;61.00;;;;;;5094184;28;20024;-91
2022/01/30 01:33:23;;;;;;;7.38;4.25;;;11.20;59.10;;;;;;5111440;28;20054;-90
2022/01/30 01:35:49;;;;;;;9.70;4.10;;;11.70;57.50;;;;;;5094737;28;20024;-81
2022/01/30 01:38:15;;;;;;;6.47;3.70;;;11.60;57.00;;;;;;5086627;28;20020;-85
2022/01/30 01:40:51;;;;;;;6.32;3.95;;;11.40;57.70;;;;;;5073113;28;20560;-90
2022/01/30 01:43:19;;;;;;;6.15;3.80;;;11.90;57.30;;;;;;5091402;28;20093;-91
2022/01/30 01:45:46;;;;;;;7.82;4.43;;;11.60;57.10;;;;;;5073488;28;20506;-81
2022/01/30 01:48:14;;;;;;;7.18;3.70;;;11.60;57.10;;;;;;5074214;28;20075;-84
2022/01/30 01:50:44;;;;;;;6.43;3.70;;;11.30;58.00;;;;;;5067690;28;20020;-83
2022/01/30 01:53:14;;;;;;;7.25;4.15;;;11.20;57.40;;;;;;5059946;28;20024;-80
2022/01/30 01:55:41;;;;;;;;;;;11.40;57.70;;;;;;5077758;28;20032;-80
2022/01/30 01:58:08;;;;;;;8.27;4.20;;;11.30;57.60;;;;;;5083899;28;20369;-81
2022/01/30 02:00:35;;;;;;;7.50;4.25;;;11.10;57.50;;;;;;5097380;28;20081;-88
2022/01/30 02:03:02;;;;;;;6.72;4.20;;;11.60;57.00;;;;;;5097978;28;20099;-83
2022/01/30 02:05:30;;;;;;;8.48;4.10;;;11.30;56.20;;;;;;5079055;28;20032;-81
2022/01/30 02:08:33;;;;;;;7.35;4.15;;;11.40;57.00;;;;;;5094048;28;20023;-79
2022/01/30 02:11:09;;;;;;;8.75;4.38;;;11.10;56.80;;;;;;5074380;28;20041;-84
2022/01/30 02:24:41;;;;;;;6.90;3.92;;;10.70;57.60;;;;;;5098182;28;20039;-80
2022/01/30 02:27:07;;;;;;;8.60;4.75;;;10.80;57.60;;;;;;5076577;28;20174;-86
2022/01/30 02:29:33;;;;;;;8.45;4.70;;;10.70;57.50;;;;;;5074872;28;20111;-88
2022/01/30 02:32:00;;;;;;;7.50;4.50;;;10.50;58.20;;;;;;5079040;28;20028;-81
2022/01/30 02:34:27;;;;;;;6.43;4.05;;;10.40;58.00;;;;;;5078982;28;20017;-80
2022/01/30 02:36:54;;;;;;;9.73;4.55;;;10.30;58.20;;;;;;5078771;28;20066;-89
2022/01/30 02:39:20;;;;;;;8.00;4.82;;;10.50;58.10;;;;;;5082674;28;20049;-86
2022/01/30 02:41:46;;;;;;;8.65;4.53;;;10.20;58.20;;;;;;5059421;28;20016;-80
2022/01/30 02:48:47;;;;;;;7.78;4.28;;;9.90;59.70;;;;;;5073141;27;1420443;-89
2022/01/30 02:51:15;;;;;;;8.48;4.32;;;9.90;60.30;;;;;;5095421;28;20058;-80
2022/01/30 02:53:45;;;;;;;7.43;4.53;;;10.00;60.20;;;;;;5112994;28;20085;-88
2022/01/30 02:56:11;;;;;;;7.05;4.40;;;9.90;60.10;;;;;;5091268;28;20056;-80
2022/01/30 02:58:37;;;;;;;8.25;4.80;;;10.10;59.70;;;;;;5092199;28;20067;-83
2022/01/30 03:01:03;;;;;;;10.23;4.90;;;9.90;59.10;;;;;;5074375;28;20036;-83
2022/01/30 03:03:29;;;;;;;9.63;4.95;;;9.50;60.20;;;;;;5092646;28;20031;-82
2022/01/30 03:05:57;;;;;;;12.20;5.25;;;9.20;61.00;;;;;;5092604;28;20025;-82
2022/01/30 03:08:23;;;;;;;8.75;5.40;;;8.90;61.40;;;;;;5092528;28;20040;-81
2022/01/30 03:10:49;;;;;;;9.43;5.38;;;8.80;62.00;;;;;;5074227;28;20031;-89
2022/01/30 03:13:14;;;;;;;10.50;5.18;;;8.60;62.60;;;;;;5092169;28;20077;-85
2022/01/30 03:15:40;;;;;;;12.82;5.00;;;8.40;62.90;;;;;;5074878;28;20029;-89
2022/01/30 03:18:06;;;;;;;8.63;4.82;;;8.40;63.10;;;;;;5074420;28;20379;-89
2022/01/30 03:20:31;;;;;;;8.35;4.47;;;8.30;63.50;;;;;;5092173;28;20028;-81
2022/01/30 03:22:59;;;;;;;11.18;5.32;;;8.40;63.60;;;;;;5074037;28;20062;-81
2022/01/30 03:25:25;;;;;;;9.27;4.72;;;8.60;63.50;;;;;;5074462;28;20024;-82
2022/01/30 03:27:53;;;;;;;8.98;4.68;;;8.60;63.70;;;;;;5073441;28;20044;-90
2022/01/30 03:30:27;;;;;;;7.43;4.30;;;8.60;63.90;;;;;;5074414;28;20360;-82
2022/01/30 03:32:53;;;;;;;7.13;4.10;;;8.90;63.50;;;;;;5091952;28;20031;-80
2022/01/30 03:35:22;;;;;;;7.70;4.45;;;9.10;63.20;;;;;;5074210;28;20024;-84
2022/01/30 03:37:48;;;;;;;8.38;4.05;;;9.40;62.50;;;;;;5073792;28;20035;-81
2022/01/30 03:40:14;;;;;;;6.82;3.90;;;9.30;63.40;;;;;;5073795;28;20021;-88
2022/01/30 03:42:40;;;;;;;6.68;3.90;;;9.00;64.00;;;;;;5073527;28;20035;-81
2022/01/30 03:45:06;;;;;;;7.95;3.92;;;9.00;64.20;;;;;;5091544;28;20425;-81
2022/01/30 03:47:32;;;;;;;8.48;3.20;;;9.20;64.20;;;;;;5072554;28;20656;-80
2022/01/30 03:49:58;;;;;;;5.82;3.40;;;9.20;65.30;;;;;;5091325;28;20028;-83
2022/01/30 03:52:23;;;;;;;6.25;3.10;;;9.40;66.20;;;;;;5073142;28;20386;-81
2022/01/30 03:54:49;;;;;;;4.78;2.92;;;9.30;66.20;;;;;;5072931;28;20406;-84
2022/01/30 03:57:17;;;;;;;4.38;2.60;;;9.50;66.10;;;;;;5073388;28;20071;-84
2022/01/30 03:59:43;;;;;;;4.80;2.67;;;9.80;66.60;;;;;;5060640;28;20021;-81
2022/01/30 04:02:08;;;;;;;6.05;2.95;;;9.70;68.00;;;;;;5078358;28;20035;-87
2022/01/30 04:04:34;;;;;;;4.82;2.97;;;9.60;69.80;;;;;;5060504;28;20024;-85
2022/01/30 04:07:09;;;;;;;7.28;3.15;;;9.70;69.60;;;;;;5059907;28;20407;-83
2022/01/30 04:09:35;;;;;;;4.80;2.90;;;9.60;71.20;;;;;;5077969;28;20017;-81
2022/01/30 04:12:01;;;;;;;4.70;2.72;;;9.30;71.70;;;;;;5059688;28;20093;-91
2022/01/30 04:14:27;;;;;;;6.72;3.22;;;9.40;71.90;;;;;;5060269;28;20032;-91
2022/01/30 04:16:53;;;;;;;4.72;3.00;;;9.40;71.60;;;;;;5077377;28;20516;-82
2022/01/30 04:19:18;;;;;;;4.95;2.78;;;9.60;71.50;;;;;;5078072;28;20024;-94
2022/01/30 04:21:44;;;;;;;4.75;2.95;;;9.60;70.60;;;;;;5059443;28;20070;-87
2022/01/30 04:24:10;;;;;;;5.78;2.90;;;9.80;70.50;;;;;;5060431;28;20032;-80
2022/01/30 04:26:36;;;;;;;6.63;3.10;;;9.80;70.00;;;;;;5060737;28;20028;-87
2022/01/30 04:29:02;;;;;;;4.35;2.58;;;9.60;69.90;;;;;;5059292;28;20039;-81
2022/01/30 04:31:28;;;;;;;5.65;2.90;;;9.60;70.40;;;;;;5059502;28;20528;-90
2022/01/30 04:33:55;;;;;;;4.40;2.70;;;9.80;69.90;;;;;;5059385;28;20032;-86
2022/01/30 04:36:26;;;;;;;5.90;3.25;;;9.90;69.70;;;;;;5060693;28;20061;-89
2022/01/30 04:41:35;;;;;;;7.22;3.30;;;10.10;68.50;;;;;;5077576;28;20099;-80
2022/01/30 04:52:47;;;;;;;4.95;3.00;;;10.10;68.00;;;;;;5077768;28;20552;-81
2022/01/30 05:05:59;;;;;;;4.63;2.85;;;10.00;68.10;;;;;;4996034;28;20556;-79
2022/01/30 05:08:25;;;;;;;4.43;2.58;;;9.70;68.90;;;;;;4995818;28;20034;-90
2022/01/30 05:10:53;;;;;;;4.10;2.20;;;9.80;69.00;;;;;;4978566;28;20034;-85
2022/01/30 05:13:22;;;;;;;7.57;3.33;;;9.80;69.50;;;;;;4995104;28;20054;-83
2022/01/30 05:15:48;;;;;;;8.57;3.70;;;10.00;69.30;;;;;;4979907;28;20034;-81
2022/01/30 05:18:21;;;;;;;4.43;2.05;;;9.80;70.00;;;;;;4979514;28;20034;-92
2022/01/30 05:20:47;;;;;;;3.10;1.70;;;10.10;69.50;;;;;;4995960;28;20037;-94
2022/01/30 05:23:14;;;;;;;2.90;1.50;;;10.20;69.80;;;;;;4995340;28;20042;-92
2022/01/30 05:25:40;;;;;;;2.75;1.30;;;10.60;68.00;;;;;;4995713;28;20027;-80
2022/01/30 05:28:06;;;;;;;4.28;1.45;;;10.50;68.40;;;;;;4979105;28;20037;-82
2022/01/30 05:30:36;;;;;;;2.85;1.50;;;10.70;68.30;;;;;;4979756;28;20046;-82
2022/01/30 05:33:02;;;;;;;2.70;1.38;;;10.60;69.70;;;;;;4979135;28;20516;-92
2022/01/30 05:35:28;;;;;;;3.15;1.50;;;10.50;71.20;;;;;;4993354;28;20113;-88
2022/01/30 05:37:55;;;;;;;2.50;1.23;;;10.00;71.30;;;;;;5058665;28;20453;-89
2022/01/30 05:40:23;;;;;;;2.60;1.40;;;9.80;72.50;;;;;;5058775;28;20036;-81
2022/01/30 05:42:48;;;;;;;1.75;1.02;;;9.90;72.60;;;;;;5057371;28;20040;-79
2022/01/30 05:47:47;;;;;;;2.60;1.40;;;10.80;69.70;;;;;;5075776;28;20190;-81
2022/01/30 05:50:13;;;;;;;2.65;1.50;;;10.90;69.70;;;;;;5075902;28;20031;-85
2022/01/30 05:52:39;;;;;;;3.45;1.52;;;10.90;70.10;;;;;;5057922;28;20034;-81
2022/01/30 05:55:05;;;;;;;3.55;1.80;;;10.90;70.70;;;;;;5076219;28;20020;-83
2022/01/30 05:57:31;;;;;;;3.15;1.67;;;10.70;71.10;;;;;;5057606;28;20055;-81
2022/01/30 05:59:57;;;;;;;3.83;1.40;;;10.60;71.30;;;;;;5075195;28;20056;-83
2022/01/30 06:02:22;;;;;;;3.47;1.67;;;10.10;71.60;;;;;;5073585;28;20032;-83
2022/01/30 06:04:48;;;;;;;4.70;1.88;;;9.70;72.50;;;;;;5041013;28;20013;-89
2022/01/30 06:07:14;;;;;;;6.90;1.83;;;9.60;73.70;;;;;;5054635;28;20033;-83
2022/01/30 06:09:39;;;;;;;5.90;1.95;;;9.70;72.20;;;;;;5042363;28;20016;-85
2022/01/30 06:12:06;;;;;;;9.45;3.30;;;9.80;70.00;;;;;;5056385;28;20028;-84
2022/01/30 06:14:33;;;;;;;12.57;5.18;;;9.90;69.50;;;;;;5075553;28;20104;-84
2022/01/30 06:16:59;;;;;;;11.85;4.50;;;10.10;69.70;;;;;;5057760;28;20028;-82
2022/01/30 06:19:26;;;;;;;5.50;1.42;;;10.60;68.80;;;;;;5056376;28;20036;-89
2022/01/30 06:21:51;;;;;;;1.83;1.00;;;10.60;68.00;;;;;;5045159;28;20032;-86
2022/01/30 06:24:17;;;;;;;4.95;1.77;;;10.60;68.60;;;;;;5054933;28;20017;-88
2022/01/30 06:26:43;;;;;;;4.57;2.47;;;10.50;69.20;;;;;;5050880;28;20032;-85
2022/01/30 06:29:09;;;;;;;2.97;1.30;;;10.00;70.70;;;;;;5042589;28;20459;-91
2022/01/30 06:31:34;;;;;;;4.55;1.52;;;10.10;70.70;;;;;;5041775;28;20106;-84
2022/01/30 06:34:00;;;;;;;3.97;2.10;;;10.10;70.60;;;;;;5049507;28;20025;-84
2022/01/30 06:36:40;;;;;;;3.47;1.67;;;10.10;69.60;;;;;;4844856;28;10001340;-80
2022/01/30 06:39:06;;;;;;;9.30;3.60;;;10.00;70.10;;;;;;5042611;28;20267;-86
2022/01/30 06:41:31;;;;;;;10.32;3.83;;;10.00;70.60;;;;;;5035269;28;20122;-78
2022/01/30 06:43:57;;;;;;;10.02;4.03;;;10.40;69.00;;;;;;5067871;28;20017;-82
2022/01/30 06:46:23;;;;;;;11.48;4.82;;;10.30;68.70;;;;;;5056300;28;20028;-88
2022/01/30 06:48:49;;;;;;;2.40;1.20;;;10.40;68.50;;;;;;5050954;28;20048;-81
2022/01/30 06:51:14;;;;;;;9.70;2.90;;;10.30;68.00;;;;;;5055651;28;20352;-84
2022/01/30 06:53:40;;;;;;;6.82;2.83;;;10.30;68.60;;;;;;5038538;28;20060;-78
2022/01/30 06:56:08;;;;;;;7.38;3.45;;;10.30;67.80;;;;;;5053384;28;20107;-85
2022/01/30 06:58:34;;;;;;;10.57;4.28;;;10.30;67.80;;;;;;5052892;28;20017;-77
2022/01/30 07:00:59;;;;;;;9.35;3.70;;;10.50;67.70;;;;;;5034230;28;20025;-84
2022/01/30 07:03:28;;;;;;;8.30;3.08;;;10.50;67.50;;;;;;5052414;28;20079;-82
2022/01/30 07:05:54;;;;;;;4.03;1.80;;;10.70;66.80;;;;;;5065153;28;20054;-80
2022/01/30 07:08:20;;;;;;;3.63;1.70;;;10.60;66.90;;;;;;5046343;28;20041;-84
2022/01/30 07:10:45;;;;;;;7.88;4.40;;;10.70;66.90;;;;;;5041115;28;20459;-80
2022/01/30 07:13:12;;;;;;;4.20;1.80;;;10.90;66.20;;;;;;5072318;28;20082;-80
2022/01/30 07:15:41;;;;;;;3.58;1.60;;;10.60;65.80;;;;;;5055247;28;20021;-79
2022/01/30 07:18:07;;;;;;;3.35;1.50;;;10.60;66.00;;;;;;5066095;28;20017;-79
2022/01/30 07:20:33;;;;;;;5.25;2.50;;;10.60;65.90;;;;;;5037770;28;20064;-76
2022/01/30 07:22:58;;;;;;;4.75;1.40;;;10.50;65.80;;;;;;5043492;28;20040;-80
2022/01/30 07:25:24;;;;;;;4.53;2.00;;;10.70;64.80;;;;;;5049408;28;20105;-78
2022/01/30 07:27:50;;;;;;;4.22;1.33;;;10.60;64.60;;;;;;5041038;28;20037;-86
2022/01/30 07:30:15;;;;;;;4.95;1.67;;;10.60;64.00;;;;;;5060015;28;20028;-84
2022/01/30 07:32:41;;;;;;;4.22;1.98;;;10.70;62.30;;;;;;5049273;28;20021;-80
2022/01/30 07:35:07;;;;;;;5.40;1.67;;;10.80;62.50;;;;;;5071625;28;20020;-81
2022/01/30 07:37:34;;;;;;;4.55;1.80;;;10.90;61.30;;;;;;5059086;28;20025;-81
2022/01/30 07:40:02;;;;;;;4.68;1.70;;;10.80;60.70;;;;;;5077042;28;20367;-79
2022/01/30 07:42:27;;;;;;;4.50;1.67;;;10.70;60.30;;;;;;5058792;28;20024;-83
2022/01/30 07:44:53;;;;;;;5.30;1.90;;;10.50;60.40;;;;;;5076671;28;20021;-91
2022/01/30 07:47:21;;;;;;;3.50;1.42;;;10.40;60.90;;;;;;5058556;28;20067;-80
2022/01/30 07:49:52;;;;;;;4.15;1.52;;;10.50;61.30;;;;;;5058785;28;20116;-84
2022/01/30 07:52:19;;;;;;;3.08;1.45;;;10.30;60.50;;;;;;5044281;28;20029;-83
2022/01/30 07:54:45;;;;;;;5.45;1.75;;;10.80;60.50;;;;;;5047095;28;20384;-83
2022/01/30 07:57:10;;;;;;;3.67;1.52;;;11.10;59.60;;;;;;5058272;28;20051;-90
2022/01/30 07:59:36;;;;;;;8.80;3.85;;;11.40;58.30;;;;;;5058228;28;20123;-81
2022/01/30 08:02:08;;;;;;;4.20;1.90;;;11.50;58.50;;;;;;5057241;28;20171;-88
2022/01/30 08:04:33;;;;;;;4.85;2.15;;;11.30;58.20;;;;;;5076901;28;20498;-79
2022/01/30 08:07:00;;;;;;;4.93;1.95;;;11.10;59.10;;;;;;5057931;28;20036;-82
2022/01/30 08:09:26;;;;;;;6.13;2.40;;;11.30;59.10;;;;;;5058404;28;20028;-82
2022/01/30 08:11:52;;;;;;;5.57;1.45;;;11.30;59.00;;;;;;5076788;28;20028;-81
2022/01/30 08:14:18;;;;;;;6.90;2.42;;;11.40;58.50;;;;;;5058167;28;20028;-80
2022/01/30 08:16:44;;;;;;;3.90;1.40;;;11.40;58.70;;;;;;5076435;28;20387;-81
2022/01/30 08:19:09;;;;;;;4.75;1.77;;;11.60;57.80;;;;;;5058121;28;20028;-92
2022/01/30 08:21:35;;;;;;;7.10;2.40;;;11.60;57.70;;;;;;5061571;28;20025;-78
2022/01/30 08:24:01;;;;;;;4.50;1.65;;;11.40;58.10;;;;;;5075206;28;20025;-88
2022/01/30 08:26:27;;;;;;;4.85;1.70;;;11.50;57.10;;;;;;5056590;28;20024;-79
2022/01/30 08:28:52;;;;;;;4.63;1.60;;;11.70;56.90;;;;;;5053317;28;20033;-84
2022/01/30 08:31:18;;;;;;;4.90;2.20;;;11.90;56.70;;;;;;5054719;28;20028;-84
2022/01/30 08:33:47;;;;;;;4.40;1.65;;;11.90;56.00;;;;;;5062077;28;20048;-83
2022/01/30 08:36:12;;;;;;;7.22;1.77;;;11.70;56.30;;;;;;5075459;28;20028;-85
2022/01/30 08:38:38;;;;;;;8.02;2.00;;;11.90;56.20;;;;;;5050720;28;20074;-83
2022/01/30 08:41:07;;;;;;;3.42;1.48;;;11.50;56.10;;;;;;5056265;28;20029;-79
2022/01/30 08:43:42;;;;;;;6.32;2.13;;;11.40;56.70;;;;;;5057879;28;20051;-87
2022/01/30 08:46:32;;;;;;;5.13;1.80;;;11.70;55.90;;;;;;5063221;28;20021;-86
2022/01/30 08:48:59;;;;;;;6.65;1.83;;;11.60;56.10;;;;;;5049899;28;20450;-80
2022/01/30 08:51:27;;;;;;;5.57;1.63;;;11.80;56.30;;;;;;5057919;28;20032;-83
2022/01/30 08:53:53;;;;;;;5.55;1.70;;;11.60;56.60;;;;;;5053273;28;20468;-79
2022/01/30 08:56:21;;;;;;;5.63;1.95;;;11.70;56.00;;;;;;5043494;28;20079;-79
2022/01/30 08:58:48;;;;;;;9.95;4.35;;;12.60;55.20;;;;;;5075042;28;20031;-80
2022/01/30 09:01:16;;;;;;;7.47;2.10;;;14.10;52.60;;;;;;5053416;28;20036;-86
2022/01/30 09:03:45;;;;;;;7.30;2.78;;;15.70;49.90;;;;;;5053540;28;20099;-87
2022/01/30 09:06:11;;;;;;;8.40;3.67;;;16.10;48.90;;;;;;5057488;28;20021;-87
2022/01/30 09:08:37;;;;;;;5.97;2.42;;;17.20;47.00;;;;;;5055490;28;20044;-90
2022/01/30 09:11:03;;;;;;;5.78;2.30;;;16.70;46.50;;;;;;5070673;28;20024;-81
2022/01/30 09:13:31;;;;;;;5.93;1.85;;;15.60;47.60;;;;;;5073718;28;20051;-87
2022/01/30 09:15:59;;;;;;;6.45;1.60;;;15.80;48.30;;;;;;5051470;28;20024;-89
2022/01/30 09:18:29;;;;;;;7.13;2.28;;;16.40;46.80;;;;;;5056824;28;20025;-92
2022/01/30 09:20:54;;;;;;;7.13;2.47;;;17.40;46.30;;;;;;5075573;28;20074;-80
2022/01/30 09:23:20;;;;;;;3.30;1.48;;;18.60;44.20;;;;;;5073036;28;20028;-83
2022/01/30 09:25:47;;;;;;;6.28;2.00;;;18.10;44.30;;;;;;5040401;28;20538;-83
2022/01/30 09:28:19;;;;;;;3.13;1.23;;;18.10;44.60;;;;;;5044515;28;20127;-88
2022/01/30 09:30:45;;;;;;;4.72;1.52;;;18.70;42.90;;;;;;5047526;28;20112;-84
2022/01/30 09:33:11;;;;;;;3.38;1.52;;;18.20;43.30;;;;;;5043321;28;20108;-81
2022/01/30 09:35:37;;;;;;;4.20;1.30;;;17.50;43.20;;;;;;5055709;28;20763;-81
2022/01/30 09:38:06;;;;;;;4.88;1.75;;;17.30;43.90;;;;;;5055923;28;20099;-81
2022/01/30 09:40:33;;;;;;;4.95;1.50;;;17.60;42.60;;;;;;5056229;28;20433;-84
2022/01/30 09:43:02;;;;;;;31.45;17.52;;;16.70;43.10;;;;;;5056244;28;20536;-80
2022/01/30 09:45:30;;;;;;;4.25;1.80;;;16.40;43.90;;;;;;5073594;28;20036;-85
2022/01/30 09:48:02;;;;;;;12.30;5.68;;;16.10;44.80;;;;;;5074081;28;20479;-86
2022/01/30 09:50:28;;;;;;;8.95;3.70;;;15.80;44.40;;;;;;5056368;28;20441;-86
2022/01/30 09:52:59;;;;;;;6.38;2.40;;;15.30;45.90;;;;;;5075113;28;20487;-83
2022/01/30 09:55:26;;;;;;;6.13;1.90;;;14.60;46.30;;;;;;5055149;28;20021;-88
2022/01/30 09:57:53;;;;;;;9.43;1.85;;;14.50;47.10;;;;;;5049034;28;20025;-85
2022/01/30 10:00:23;;;;;;;5.28;2.00;;;13.60;47.90;;;;;;5046855;28;20032;-92
2022/01/30 10:02:49;;;;;;;5.88;2.00;;;12.90;47.90;;;;;;5056583;28;20029;-85
2022/01/30 10:05:18;;;;;;;3.80;1.65;;;13.30;48.00;;;;;;5056477;28;20074;-92
2022/01/30 10:07:50;;;;;;;6.18;1.60;;;13.20;48.40;;;;;;5055840;28;20047;-89
2022/01/30 10:10:18;;;;;;;2.78;1.20;;;13.30;48.50;;;;;;5045331;28;20036;-87
2022/01/30 10:13:02;;;;;;;4.32;1.50;;;13.60;47.70;;;;;;5073369;28;20024;-82
2022/01/30 10:15:28;;;;;;;3.55;1.50;;;13.20;48.80;;;;;;5056654;28;20696;-91
2022/01/30 10:17:54;;;;;;;3.60;1.70;;;13.20;49.20;;;;;;5056203;28;20411;-90
2022/01/30 10:20:22;;;;;;;6.00;3.10;;;14.50;48.60;;;;;;5046485;28;20128;-78
2022/01/30 10:22:55;;;;;;;4.05;1.90;;;15.10;47.10;;;;;;5045462;28;20029;-80
2022/01/30 10:25:30;;;;;;;7.53;2.20;;;15.10;46.90;;;;;;5050982;28;20025;-80
2022/01/30 10:28:15;;;;;;;5.05;2.30;;;14.80;47.30;;;;;;5047699;28;20041;-86
2022/01/30 10:30:53;;;;;;;5.72;2.50;;;15.00;48.00;;;;;;5055200;28;20112;-83
2022/01/30 10:33:22;;;;;;;4.57;1.60;;;15.50;46.70;;;;;;5056016;28;20122;-81
2022/01/30 10:35:57;;;;;;;5.97;1.50;;;14.90;47.90;;;;;;5055849;28;20032;-90
2022/01/30 10:38:35;;;;;;;5.05;1.58;;;13.60;48.80;;;;;;5055058;28;20053;-82
2022/01/30 10:41:11;;;;;;;8.77;1.60;;;12.50;50.80;;;;;;5055919;28;20036;-86
2022/01/30 10:43:56;;;;;;;200.43;173.98;;;12.10;51.70;;;;;;5072592;28;20036;-80
2022/01/30 10:46:28;;;;;;;41.80;29.25;;;11.80;51.20;;;;;;5055092;28;20035;-86
2022/01/30 10:49:03;;;;;;;21.33;18.98;;;11.60;50.80;;;;;;5072710;28;20062;-89
2022/01/30 10:51:31;;;;;;;20.77;13.55;;;11.20;51.30;;;;;;5052596;28;20131;-81
2022/01/30 10:54:13;;;;;;;9.95;6.65;;;11.20;51.90;;;;;;5073705;28;20020;-89
2022/01/30 10:56:40;;;;;;;35.25;31.05;;;10.90;51.60;;;;;;5054912;28;20058;-83
2022/01/30 10:59:22;;;;;;;20.45;15.30;;;11.10;52.30;;;;;;5055459;28;20036;-91
2022/01/30 11:01:50;;;;;;;26.77;23.88;;;11.60;52.80;;;;;;5072490;28;20075;-90
2022/01/30 11:04:27;;;;;;;19.20;14.00;;;12.10;52.00;;;;;;5055662;28;20024;-86
2022/01/30 11:06:55;;;;;;;51.67;46.08;;;12.40;51.20;;;;;;5073287;28;20116;-83
2022/01/30 11:09:29;;;;;;;14.50;13.00;;;12.00;52.00;;;;;;5058572;28;20368;-81
2022/01/30 11:12:07;;;;;;;8.43;4.85;;;11.70;52.30;;;;;;5077154;28;20029;-85
2022/01/30 11:14:40;;;;;;;10.15;4.55;;;11.10;53.60;;;;;;5059149;28;20082;-86
2022/01/30 11:17:09;;;;;;;7.55;3.72;;;10.70;54.60;;;;;;5075307;28;20029;-84
2022/01/30 11:19:40;;;;;;;6.25;2.33;;;10.70;54.00;;;;;;5058913;28;20040;-82
2022/01/30 11:22:14;;;;;;;6.32;3.80;;;10.70;54.30;;;;;;5058931;28;20118;-86
2022/01/30 11:25:05;;;;;;;13.65;9.82;;;10.80;54.80;;;;;;5054512;28;20115;-82
2022/01/30 11:27:32;;;;;;;7.38;2.97;;;11.30;53.60;;;;;;5076846;28;20106;-84
2022/01/30 11:29:59;;;;;;;11.55;6.65;;;11.70;52.60;;;;;;5077416;28;20054;-84
2022/01/30 11:32:28;;;;;;;7.97;5.35;;;11.80;52.00;;;;;;5059898;28;20025;-89
2022/01/30 11:34:55;;;;;;;13.45;8.63;;;11.20;51.80;;;;;;5058702;28;20016;-84
2022/01/30 11:37:24;;;;;;;8.25;2.80;;;10.90;52.50;;;;;;5076199;28;20494;-79
2022/01/30 11:39:53;;;;;;;19.33;15.32;;;10.90;52.40;;;;;;5059652;28;20043;-82
2022/01/30 11:42:45;;;;;;;18.02;14.02;;;10.90;52.30;;;;;;5076727;28;20032;-84
2022/01/30 11:45:32;;;;;;;10.80;6.88;;;11.00;51.60;;;;;;5076881;28;20096;-81
2022/01/30 11:48:09;;;;;;;6.88;2.58;;;10.90;51.90;;;;;;5058477;28;20048;-83
2022/01/30 11:50:35;;;;;;;6.18;3.00;;;11.00;51.30;;;;;;5076352;28;20016;-82
2022/01/30 11:53:26;;;;;;;9.88;3.85;;;11.00;51.30;;;;;;5054128;28;20064;-81
2022/01/30 11:56:00;;;;;;;;;;;11.10;51.50;;;;;;5072163;28;20017;-86
2022/01/30 11:58:41;;;;;;;6.88;2.50;;;11.40;51.00;;;;;;5055148;28;19905;-80
2022/01/30 12:01:25;;;;;;;;;;;11.50;50.60;;;;;;5038987;28;20081;-90
2022/01/30 12:03:59;;;;;;;6.07;2.30;;;11.30;51.10;;;;;;5039020;28;20335;-78
2022/01/30 12:06:25;;;;;;;14.60;6.10;;;10.90;52.30;;;;;;5055485;28;20050;-86
2022/01/30 12:09:19;;;;;;;9.10;4.43;;;11.00;52.10;;;;;;5074252;28;20032;-86
2022/01/30 12:11:48;;;;;;;6.78;2.50;;;11.00;52.10;;;;;;5030634;28;20040;-87
2022/01/30 12:14:23;;;;;;;6.75;2.95;;;10.90;52.20;;;;;;5051471;28;20801;-85
2022/01/30 12:16:56;;;;;;;7.38;3.58;;;11.20;51.50;;;;;;5045713;28;20119;-87
2022/01/30 12:19:30;;;;;;;7.30;3.70;;;10.90;51.60;;;;;;5043238;28;20503;-87
2022/01/30 12:22:00;;;;;;;10.73;3.83;;;11.10;51.50;;;;;;5055876;28;20036;-81
2022/01/30 12:24:33;;;;;;;13.30;5.53;;;11.00;50.30;;;;;;5044535;28;20070;-87
2022/01/30 12:27:02;;;;;;;9.98;5.35;;;10.50;51.20;;;;;;5058124;28;20090;-80
2022/01/30 12:29:35;;;;;;;9.10;5.03;;;10.70;50.90;;;;;;5057681;28;20111;-81
2022/01/30 12:32:23;;;;;;;6.70;3.15;;;10.80;50.60;;;;;;5076493;28;20020;-85
2022/01/30 12:35:01;;;;;;;8.10;4.50;;;11.10;50.40;;;;;;5037909;28;20025;-81
2022/01/30 12:37:32;;;;;;;13.48;5.43;;;11.20;49.80;;;;;;5052513;28;20070;-85
2022/01/30 12:40:18;;;;;;;11.38;5.82;;;11.10;50.30;;;;;;5058089;28;20112;-81
2022/01/30 12:42:45;;;;;;;6.80;2.50;;;11.20;50.30;;;;;;5035341;28;20040;-87
2022/01/30 12:45:13;;;;;;;17.85;10.60;;;10.90;50.10;;;;;;5054339;28;20056;-81
2022/01/30 12:47:51;;;;;;;28.27;17.60;;;10.90;50.70;;;;;;5041844;28;20064;-77
2022/01/30 12:50:18;;;;;;;10.30;4.85;;;10.90;50.60;;;;;;5046584;28;20078;-84
2022/01/30 12:52:49;;;;;;;6.60;2.00;;;11.20;50.00;;;;;;5041787;28;20025;-79
2022/01/30 12:55:17;;;;;;;12.05;7.15;;;11.20;50.20;;;;;;5051662;28;20010;-84
2022/01/30 12:57:44;;;;;;;22.02;13.02;;;11.00;49.60;;;;;;5043115;28;20377;-79
2022/01/30 13:00:12;;;;;;;18.15;12.40;;;10.80;50.20;;;;;;5039103;28;20030;-83
2022/01/30 13:02:38;;;;;;;7.20;2.78;;;11.10;49.80;;;;;;5048204;28;20112;-81
2022/01/30 13:05:09;;;;;;;12.77;6.47;;;11.10;49.30;;;;;;5043567;28;20170;-79
2022/01/30 13:07:36;;;;;;;8.30;2.50;;;11.00;50.10;;;;;;5042363;28;20038;-84
2022/01/30 13:10:10;;;;;;;10.85;5.15;;;10.90;50.40;;;;;;5041745;28;20430;-83
2022/01/30 13:12:36;;;;;;;7.70;3.60;;;11.40;49.70;;;;;;5044990;28;20026;-85
2022/01/30 13:15:10;;;;;;;6.55;3.58;;;10.90;49.10;;;;;;5032638;28;20099;-81
2022/01/30 13:17:39;;;;;;;19.85;14.77;;;10.80;50.00;;;;;;5033425;28;20025;-84
2022/01/30 13:20:07;;;;;;;19.38;11.50;;;10.90;49.20;;;;;;5039691;28;20025;-82
2022/01/30 13:22:36;;;;;;;7.50;3.05;;;10.60;49.60;;;;;;5053296;28;20021;-81
2022/01/30 13:25:14;;;;;;;6.72;1.60;;;11.00;49.60;;;;;;5050927;28;20067;-88
2022/01/30 13:27:42;;;;;;;6.97;3.58;;;11.00;48.90;;;;;;5041941;28;20029;-80
2022/01/30 13:30:08;;;;;;;12.32;10.55;;;11.00;49.60;;;;;;5036394;28;20029;-87
2022/01/30 13:32:40;;;;;;;10.55;5.97;;;11.10;49.70;;;;;;5030642;28;20052;-80
2022/01/30 13:35:13;;;;;;;12.85;10.07;;;11.40;49.40;;;;;;5032888;28;20077;-79
2022/01/30 13:37:39;;;;;;;9.10;6.35;;;11.40;49.80;;;;;;4686677;28;9999855;-83
2022/01/30 13:40:18;;;;;;;9.50;6.70;;;11.80;49.30;;;;;;5038274;28;20411;-85
2022/01/30 13:48:03;;;;;;;17.95;13.43;;;11.70;50.30;;;;;;5063077;28;20041;-81
2022/01/30 13:50:41;;;;;;;18.80;14.13;;;11.60;49.60;;;;;;5073027;28;20407;-84
2022/01/30 13:53:13;;;;;;;17.75;13.55;;;11.00;50.10;;;;;;5073023;28;20071;-91